Time;durP1;ratioP1;P1;durP2;ratioP2;P2;SDS_P1;SDS_P2;PMS_P1;PMS_P2;Temp;Humidity;BMP_temperature;BMP_pressure;BME280_temperature;BME280_humidity;BME280_pressure;Samples;Min_cycle;Max_cycle;Signal;HPM_P1;HPM_P2
2022/02/11 00:01:03;;;;;;;20.25;11.55;;;;;;;4.86;47.43;94501.28;4990533;28;20479;-77
2022/02/11 00:08:42;;;;;;;23.70;11.38;;;;;;;5.08;47.63;94520.31;4981626;28;20065;-77
2022/02/11 00:11:08;;;;;;;24.88;10.48;;;;;;;5.12;47.88;94537.19;5009415;28;20029;-78
2022/02/11 00:13:33;;;;;;;17.45;10.18;;;;;;;5.08;47.83;94514.25;4981371;28;20056;-76
2022/02/11 00:15:59;;;;;;;21.00;11.95;;;;;;;5.08;48.17;94530.84;4983934;28;20516;-77
2022/02/11 00:18:24;;;;;;;20.38;11.27;;;;;;;5.21;48.08;94539.31;4973285;28;20065;-76
2022/02/11 00:20:51;;;;;;;20.08;11.32;;;;;;;5.25;48.11;94530.59;4989901;28;20059;-77
2022/02/11 00:23:19;;;;;;;15.07;10.27;;;;;;;5.40;47.81;94529.81;4977810;28;20039;-74
2022/02/11 00:25:54;;;;;;;22.52;10.65;;;;;;;5.08;48.14;94488.66;4987548;28;20026;-76
2022/02/11 00:33:39;;;;;;;13.10;8.50;;;;;;;5.08;48.00;94499.22;5001777;28;20092;-76
2022/02/11 00:36:08;;;;;;;18.27;8.25;;;;;;;5.34;47.88;94530.88;5006287;28;20396;-76
2022/02/11 01:02:28;;;;;;;10.75;6.65;;;;;;;5.22;47.75;94496.06;5000561;28;20068;-77
2022/02/11 01:04:53;;;;;;;24.70;10.43;;;;;;;5.30;47.61;94503.44;5008687;28;20417;-77
2022/02/11 01:07:19;;;;;;;23.17;11.25;;;;;;;5.14;47.65;94469.13;5007649;28;20037;-77
2022/02/11 01:09:44;;;;;;;18.60;9.38;;;;;;;5.22;47.80;94485.50;4999323;28;20034;-77
2022/02/11 01:12:11;;;;;;;18.63;9.85;;;;;;;4.87;48.23;94457.25;4990713;28;20765;-77
2022/02/11 01:14:41;;;;;;;16.45;8.32;;;;;;;5.19;48.30;94507.13;5003991;28;20493;-77
2022/02/11 01:17:15;;;;;;;15.27;9.55;;;;;;;5.26;48.07;94497.09;5001884;28;20021;-77
2022/02/11 01:19:57;;;;;;;17.65;11.13;;;;;;;5.16;48.17;94492.63;5005768;28;20503;-77
2022/02/11 01:32:57;;;;;;;30.55;14.05;;;;;;;5.28;47.94;94479.97;5000110;28;20041;-77
2022/02/11 01:46:37;;;;;;;23.48;10.73;;;;;;;4.88;48.26;94453.56;4999333;28;20080;-74
2022/02/11 01:48:53;;;;;;;42.28;14.90;;;;;;;5.16;48.35;94492.63;4996232;28;20424;-77
2022/02/11 01:54:34;;;;;;;20.58;10.40;;;;;;;4.81;48.43;94445.91;4984384;28;20041;-77
2022/02/11 01:57:14;;;;;;;32.63;12.60;;;;;;;5.00;48.53;94470.72;5006789;28;20030;-77
2022/02/11 02:00:12;;;;;;;17.63;10.68;;;;;;;4.73;48.63;94422.72;5009324;28;20101;-77
2022/02/11 02:23:41;;;;;;;24.37;11.63;;;;;;;4.92;48.50;94460.69;5001447;28;20033;-76
2022/02/11 02:26:14;;;;;;;27.50;13.82;;;;;;;5.09;48.35;94477.03;4986205;28;20531;-77
2022/02/11 02:59:01;;;;;;;24.42;13.77;;;;;;;4.37;49.73;94458.72;5010207;28;20060;-77
2022/02/11 03:01:49;;;;;;;23.75;11.40;;;;;;;4.68;49.50;94486.75;5001090;28;20157;-77
2022/02/11 03:15:52;;;;;;;22.70;11.38;;;;;;;4.58;49.78;94470.91;5002859;28;20080;-76
2022/02/11 04:08:27;;;;;;;16.33;9.45;;;;;;;4.24;49.63;94467.84;4998294;28;20048;-76
2022/02/11 04:23:29;;;;;;;20.88;10.55;;;;;;;4.41;50.03;94490.56;5006351;28;20085;-77
2022/02/11 04:55:53;;;;;;;24.88;11.80;;;;;;;4.08;50.23;94446.97;4997325;28;20025;-74
2022/02/11 05:01:02;;;;;;;17.35;9.95;;;;;;;4.35;49.86;94486.38;5000620;28;20527;-77
2022/02/11 05:03:28;;;;;;;21.73;11.18;;;;;;;4.04;49.87;94438.81;5003721;28;20049;-77
2022/02/11 05:05:54;;;;;;;17.95;10.35;;;;;;;4.39;49.62;94487.44;5012011;28;20042;-77
2022/02/11 05:08:22;;;;;;;20.17;10.88;;;;;;;4.30;49.96;94486.34;5015625;28;20052;-77
2022/02/11 05:10:49;;;;;;;24.77;11.35;;;;;;;4.26;49.91;94476.28;5007000;28;20029;-76
2022/02/11 05:13:15;;;;;;;19.42;10.75;;;;;;;4.37;49.67;94473.72;4995272;28;20512;-76
2022/02/11 05:15:41;;;;;;;20.15;11.40;;;;;;;4.38;49.82;94486.63;5007605;28;20354;-76
2022/02/11 05:18:07;;;;;;;18.25;9.10;;;;;;;4.24;49.94;94473.13;5008742;28;20333;-73
2022/02/11 05:20:33;;;;;;;20.17;9.95;;;;;;;4.34;49.75;94484.78;5005750;28;20044;-77
2022/02/11 05:22:58;;;;;;;19.90;9.35;;;;;;;4.14;49.78;94473.06;5004677;28;20483;-76
2022/02/11 05:25:24;;;;;;;16.73;9.73;;;;;;;4.26;49.88;94483.38;5023947;28;20467;-77
2022/02/11 05:27:49;;;;;;;17.90;9.32;;;;;;;4.14;49.74;94470.44;4999786;28;20041;-76
2022/02/11 05:30:14;;;;;;;23.75;9.32;;;;;;;4.25;49.88;94487.88;5009834;28;20597;-77
2022/02/11 05:32:40;;;;;;;16.98;9.30;;;;;;;4.13;49.74;94474.13;5002261;28;20133;-76
2022/02/11 05:35:06;;;;;;;18.25;9.20;;;;;;;4.19;49.67;94493.38;5008276;28;20101;-77
2022/02/11 05:37:32;;;;;;;18.08;9.65;;;;;;;4.28;49.79;94508.41;5006438;28;20558;-77
2022/02/11 05:39:58;;;;;;;20.77;10.20;;;;;;;4.31;49.71;94507.13;5008663;28;20100;-76
2022/02/11 05:42:23;;;;;;;17.58;9.35;;;;;;;4.15;49.63;94481.78;5011988;28;20057;-76
2022/02/11 05:44:49;;;;;;;18.00;10.38;;;;;;;4.23;49.46;94510.22;5011509;28;20041;-77
2022/02/11 05:47:14;;;;;;;31.05;12.65;;;;;;;4.33;49.49;94494.50;5007172;28;20120;-77
2022/02/11 05:49:40;;;;;;;29.00;14.40;;;;;;;4.40;49.46;94515.34;5007758;28;20495;-76
2022/02/11 05:52:05;;;;;;;22.20;12.15;;;;;;;4.39;49.45;94508.50;5009789;28;20049;-76
2022/02/11 05:54:31;;;;;;;25.95;12.65;;;;;;;4.27;49.43;94506.81;5009389;28;20045;-76
2022/02/11 05:56:56;;;;;;;21.10;11.88;;;;;;;4.39;49.56;94529.56;5007844;28;20037;-76
2022/02/11 05:59:22;;;;;;;21.92;11.93;;;;;;;4.33;49.47;94520.06;5011388;28;20059;-76
2022/02/11 06:01:47;;;;;;;27.75;14.93;;;;;;;4.34;49.66;94527.69;5011299;28;20029;-77
2022/02/11 06:04:13;;;;;;;82.28;27.83;;;;;;;4.37;49.63;94532.44;5009066;28;20307;-77
2022/02/11 06:06:38;;;;;;;157.20;55.90;;;;;;;4.36;49.80;94530.06;5009698;28;20045;-76
2022/02/11 06:09:04;;;;;;;134.82;49.33;;;;;;;4.40;49.75;94533.78;5006895;28;20511;-77
2022/02/11 06:11:29;;;;;;;124.65;52.08;;;;;;;4.31;49.61;94501.88;5010893;28;20524;-75
2022/02/11 06:13:58;;;;;;;65.20;30.00;;;;;;;4.48;49.64;94533.28;5007987;28;20026;-77
2022/02/11 06:16:24;;;;;;;50.03;23.38;;;;;;;4.35;49.48;94512.69;5005518;28;20493;-77
2022/02/11 06:18:49;;;;;;;33.47;18.80;;;;;;;4.32;49.50;94495.56;5008179;28;20052;-76
2022/02/11 06:21:15;;;;;;;24.70;13.07;;;;;;;4.53;49.80;94525.41;5008834;28;20654;-77
2022/02/11 06:23:41;;;;;;;35.60;16.67;;;;;;;4.62;49.61;94524.66;5006723;28;20103;-76
2022/02/11 06:26:06;;;;;;;34.97;19.30;;;;;;;4.38;49.72;94491.09;5007814;28;20032;-77
2022/02/11 06:28:32;;;;;;;38.28;16.25;;;;;;;4.18;51.42;94521.53;5007368;28;20040;-77
2022/02/11 06:30:58;;;;;;;29.27;15.20;;;;;;;4.52;50.26;94529.88;5011570;28;20149;-77
2022/02/11 06:33:23;;;;;;;24.65;13.68;;;;;;;4.50;50.48;94526.69;5006067;28;20091;-76
2022/02/11 06:35:49;;;;;;;30.65;15.60;;;;;;;4.71;50.22;94538.13;5009794;28;21154;-76
2022/02/11 06:38:14;;;;;;;23.52;13.50;;;;;;;4.72;50.36;94528.38;5003546;28;20040;-78
2022/02/11 06:40:40;;;;;;;23.42;13.70;;;;;;;4.57;50.23;94498.28;5012024;28;20461;-77
2022/02/11 06:43:08;;;;;;;31.90;16.92;;;;;;;4.96;50.28;94532.94;5012064;28;20151;-75
2022/02/11 06:45:34;;;;;;;28.00;15.93;;;;;;;4.98;50.09;94533.47;5013599;28;20173;-77
2022/02/11 06:47:59;;;;;;;33.42;20.13;;;;;;;5.01;50.17;94538.22;5004759;28;20042;-77
2022/02/11 06:50:25;;;;;;;40.80;20.55;;;;;;;4.88;50.10;94507.09;5005254;28;20625;-77
2022/02/11 06:52:50;;;;;;;30.67;17.17;;;;;;;4.61;50.90;94538.88;5006784;28;20059;-75
2022/02/11 06:55:16;;;;;;;34.22;16.50;;;;;;;4.30;51.76;94541.63;5002527;28;20042;-76
2022/02/11 06:57:44;;;;;;;25.92;15.55;;;;;;;3.96;52.76;94517.47;5005665;28;20037;-77
2022/02/11 07:00:12;;;;;;;25.23;14.15;;;;;;;3.43;54.18;94531.56;4998898;28;20682;-77
2022/02/11 07:02:38;;;;;;;29.42;13.93;;;;;;;3.53;54.55;94515.84;5006865;28;20045;-77
2022/02/11 07:05:04;;;;;;;31.05;14.63;;;;;;;3.67;54.22;94495.97;4997665;28;20057;-76
2022/02/11 07:07:29;;;;;;;28.48;14.07;;;;;;;3.84;53.68;94496.59;5000842;28;20033;-75
2022/02/11 07:09:55;;;;;;;27.60;14.38;;;;;;;3.32;55.21;94536.72;5012252;28;20071;-75
2022/02/11 07:12:21;;;;;;;23.98;13.05;;;;;;;3.54;55.51;94536.63;5006240;28;20034;-77
2022/02/11 07:14:46;;;;;;;24.85;13.27;;;;;;;3.70;54.81;94521.75;5002554;28;20049;-76
2022/02/11 07:17:12;;;;;;;26.80;13.52;;;;;;;3.84;53.97;94491.34;5003140;28;20952;-77
2022/02/11 07:19:40;;;;;;;33.80;15.80;;;;;;;4.12;53.87;94513.84;5006968;28;20345;-76
2022/02/11 07:22:06;;;;;;;28.02;14.85;;;;;;;3.96;53.88;94504.31;5007021;28;20038;-77
2022/02/11 07:24:31;;;;;;;33.83;15.40;;;;;;;3.98;54.36;94533.78;5003974;28;20068;-77
2022/02/11 07:26:57;;;;;;;26.83;14.70;;;;;;;3.90;54.62;94532.44;5005035;28;20690;-77
2022/02/11 07:29:23;;;;;;;27.13;13.60;;;;;;;3.75;55.37;94524.44;5001814;28;20049;-76
2022/02/11 07:31:48;;;;;;;33.13;16.15;;;;;;;3.72;55.73;94530.22;5008086;28;20032;-77
2022/02/11 07:34:14;;;;;;;28.88;15.23;;;;;;;3.35;55.79;94517.81;5009247;28;20055;-76
2022/02/11 07:36:39;;;;;;;26.63;13.35;;;;;;;3.13;56.65;94500.53;4999979;28;20033;-76
2022/02/11 07:39:05;;;;;;;27.05;12.05;;;;;;;3.44;56.84;94518.16;5006790;28;20514;-77
2022/02/11 07:41:31;;;;;;;29.75;14.60;;;;;;;4.06;55.68;94515.66;5006985;28;20042;-75
2022/02/11 07:43:56;;;;;;;24.40;13.52;;;;;;;4.61;54.54;94506.47;5003252;28;20029;-77
2022/02/11 07:46:22;;;;;;;25.02;13.57;;;;;;;4.78;53.40;94507.06;5007458;28;20061;-76
2022/02/11 07:48:47;;;;;;;30.05;17.30;;;;;;;4.59;53.38;94501.47;5003272;28;20496;-76
2022/02/11 07:51:13;;;;;;;28.70;15.85;;;;;;;4.96;52.88;94496.03;5004071;28;20037;-76
2022/02/11 07:53:38;;;;;;;25.58;14.77;;;;;;;5.27;52.32;94517.97;5005297;28;20055;-77
2022/02/11 07:56:04;;;;;;;22.42;13.80;;;;;;;5.39;51.86;94507.13;5005799;28;20075;-75
2022/02/11 07:58:30;;;;;;;30.00;14.32;;;;;;;4.77;52.46;94489.66;5002701;28;20025;-76
2022/02/11 08:00:57;;;;;;;30.85;15.85;;;;;;;4.34;53.79;94521.66;5005235;28;20045;-74
2022/02/11 08:03:25;;;;;;;39.25;20.00;;;;;;;4.90;53.51;94522.63;5003115;28;20272;-77
2022/02/11 08:05:51;;;;;;;27.55;15.90;;;;;;;5.11;52.67;94518.97;5002430;28;20107;-76
2022/02/11 08:08:16;;;;;;;28.50;15.45;;;;;;;4.45;53.26;94481.94;4998364;28;20129;-77
2022/02/11 08:10:42;;;;;;;27.88;16.02;;;;;;;4.59;53.72;94519.13;5004950;28;20021;-77
2022/02/11 08:13:07;;;;;;;25.92;15.15;;;;;;;4.55;53.32;94499.63;5004965;28;20045;-77
2022/02/11 08:15:33;;;;;;;32.67;16.38;;;;;;;4.62;53.59;94514.13;4989952;28;20073;-76
2022/02/11 08:17:58;;;;;;;33.17;19.10;;;;;;;4.36;53.76;94467.66;5003449;28;20037;-75
2022/02/11 08:20:24;;;;;;;30.50;19.60;;;;;;;4.74;53.92;94479.63;5001824;28;20045;-76
2022/02/11 08:22:49;;;;;;;33.95;18.40;;;;;;;5.46;51.92;94491.84;5001373;28;20380;-76
2022/02/11 08:25:15;;;;;;;37.03;18.85;;;;;;;5.85;51.05;94484.94;5004056;28;20041;-77
2022/02/11 08:27:44;;;;;;;36.67;17.98;;;;;;;6.12;50.56;94510.22;4992386;28;20111;-77
2022/02/11 08:30:10;;;;;;;32.08;17.85;;;;;;;6.33;50.34;94491.44;4997958;28;20042;-76
2022/02/11 08:32:36;;;;;;;37.70;17.75;;;;;;;6.31;49.36;94509.41;4999990;28;20065;-74
2022/02/11 08:35:01;;;;;;;28.02;17.15;;;;;;;6.21;49.48;94480.41;4999476;28;20073;-77
2022/02/11 08:37:27;;;;;;;36.08;17.77;;;;;;;6.67;48.76;94470.44;4997464;28;20436;-77
2022/02/11 08:39:52;;;;;;;38.53;18.95;;;;;;;6.63;48.97;94490.53;4996243;28;20034;-76
2022/02/11 08:42:19;;;;;;;28.45;16.50;;;;;;;6.26;48.92;94463.75;5000815;28;20117;-76
2022/02/11 08:44:44;;;;;;;33.92;18.63;;;;;;;5.58;50.70;94481.78;4997107;28;20528;-77
2022/02/11 08:47:10;;;;;;;28.75;16.77;;;;;;;5.74;50.65;94499.22;4997397;28;20029;-75
2022/02/11 08:49:38;;;;;;;28.60;17.40;;;;;;;5.80;51.04;94482.31;5000955;28;20102;-77
2022/02/11 08:52:03;;;;;;;28.45;17.30;;;;;;;6.05;50.68;94492.03;4999189;28;20042;-77
2022/02/11 08:54:29;;;;;;;34.47;16.98;;;;;;;6.06;50.33;94455.88;5002830;28;20034;-77
2022/02/11 08:56:54;;;;;;;33.88;16.88;;;;;;;6.31;50.21;94487.50;4999010;28;20121;-77
2022/02/11 08:59:21;;;;;;;29.95;16.45;;;;;;;6.76;49.44;94457.44;5007853;28;20029;-77
2022/02/11 09:01:46;;;;;;;33.22;19.48;;;;;;;6.93;48.77;94467.66;5000494;28;20032;-77
2022/02/11 09:04:11;;;;;;;35.78;19.23;;;;;;;7.04;48.20;94471.81;5003309;28;20033;-76
2022/02/11 09:06:37;;;;;;;40.80;20.08;;;;;;;6.24;49.74;94487.00;4994649;28;20080;-77
2022/02/11 09:09:04;;;;;;;40.33;22.52;;;;;;;5.70;50.33;94429.53;4996510;28;20041;-77
2022/02/11 09:11:30;;;;;;;38.28;21.40;;;;;;;5.63;50.50;94407.91;5006143;28;20074;-76
2022/02/11 09:13:55;;;;;;;41.60;22.90;;;;;;;6.06;50.56;94459.28;4995837;28;20476;-77
2022/02/11 09:16:21;;;;;;;33.50;21.42;;;;;;;6.27;50.13;94444.19;5006399;28;20036;-77
2022/02/11 09:18:46;;;;;;;35.58;20.38;;;;;;;6.55;49.29;94462.06;4998392;28;20157;-75
2022/02/11 09:21:12;;;;;;;34.72;21.92;;;;;;;6.11;50.54;94477.78;4999974;28;20359;-76
2022/02/11 09:23:38;;;;;;;43.17;21.20;;;;;;;6.01;51.22;94469.88;4998913;28;20420;-76
2022/02/11 09:26:03;;;;;;;33.83;20.92;;;;;;;6.24;50.79;94476.44;5003789;28;20045;-77
2022/02/11 09:28:29;;;;;;;37.95;20.98;;;;;;;5.92;50.75;94448.50;5005128;28;20121;-77
2022/02/11 09:30:55;;;;;;;47.95;21.92;;;;;;;6.26;50.58;94447.91;5003327;28;20072;-76
2022/02/11 09:33:21;;;;;;;40.58;21.05;;;;;;;6.12;50.56;94439.72;5006953;28;20112;-77
2022/02/11 09:35:47;;;;;;;36.60;20.42;;;;;;;6.20;50.67;94459.53;4998920;28;20034;-77
2022/02/11 09:38:13;;;;;;;38.17;21.17;;;;;;;6.21;50.81;94463.78;4999436;28;20025;-77
2022/02/11 09:40:43;;;;;;;30.83;18.50;;;;;;;6.20;50.68;94451.63;4996771;28;20047;-77
2022/02/11 09:43:09;;;;;;;41.97;20.48;;;;;;;6.66;49.86;94452.97;5005052;28;20523;-77
2022/02/11 09:45:35;;;;;;;40.05;20.92;;;;;;;7.10;48.75;94460.13;4996180;28;20278;-77
2022/02/11 09:48:03;;;;;;;32.33;19.17;;;;;;;6.96;48.83;94419.50;4998150;28;20034;-77
2022/02/11 09:50:29;;;;;;;35.95;18.67;;;;;;;7.42;48.33;94425.22;5000502;28;20037;-77
2022/02/11 09:52:55;;;;;;;32.53;18.38;;;;;;;7.13;47.96;94446.38;5005996;28;20029;-78
2022/02/11 09:55:32;;;;;;;31.92;18.80;;;;;;;7.34;47.98;94426.59;4996757;28;20096;-75
2022/02/11 09:58:04;;;;;;;32.47;19.05;;;;;;;7.67;47.25;94441.69;5003726;28;20033;-77
2022/02/11 10:00:31;;;;;;;29.98;17.52;;;;;;;7.45;47.41;94433.41;4996802;28;20033;-77
2022/02/11 10:02:58;;;;;;;33.83;16.88;;;;;;;7.08;47.43;94428.69;5004653;28;20069;-77
2022/02/11 10:05:32;;;;;;;27.45;16.38;;;;;;;7.23;48.04;94447.09;5004592;28;20176;-76
2022/02/11 10:07:58;;;;;;;28.10;17.13;;;;;;;7.54;47.40;94442.31;5007859;28;20022;-77
2022/02/11 10:10:47;;;;;;;30.27;16.52;;;;;;;7.60;46.61;94446.50;4998442;28;20034;-77
2022/02/11 10:13:18;;;;;;;27.80;16.05;;;;;;;8.14;45.55;94409.16;4998083;28;20349;-77
2022/02/11 10:15:49;;;;;;;31.40;17.13;;;;;;;8.62;44.86;94418.91;5018709;28;20060;-77
2022/02/11 10:18:19;;;;;;;29.48;17.55;;;;;;;8.48;44.45;94395.75;5005342;28;20042;-78
2022/02/11 10:20:49;;;;;;;33.45;18.98;;;;;;;8.21;45.23;94384.97;5003100;28;20404;-77
2022/02/11 10:23:20;;;;;;;31.73;17.25;;;;;;;8.88;43.88;94405.00;5004517;28;20142;-76
2022/02/11 10:26:05;;;;;;;27.10;16.55;;;;;;;8.90;43.99;94394.88;5005363;28;21615;-77
2022/02/11 10:28:39;;;;;;;32.42;18.02;;;;;;;9.17;43.96;94407.53;5002207;28;20033;-77
2022/02/11 10:31:15;;;;;;;31.15;17.52;;;;;;;9.08;43.49;94401.28;5012316;28;20049;-77
2022/02/11 10:33:50;;;;;;;30.35;18.73;;;;;;;8.63;44.36;94401.91;5007204;28;20420;-77
2022/02/11 10:36:24;;;;;;;32.10;17.23;;;;;;;9.03;43.65;94390.72;4999967;28;20246;-77
2022/02/11 10:39:15;;;;;;;35.30;17.38;;;;;;;9.06;43.80;94390.16;5002618;28;20034;-75
2022/02/11 10:41:57;;;;;;;30.77;16.83;;;;;;;9.45;44.25;94374.66;5004590;28;20041;-77
2022/02/11 10:44:23;;;;;;;38.30;17.77;;;;;;;9.13;43.47;94380.00;4997502;28;20029;-77
2022/02/11 10:46:54;;;;;;;30.77;16.65;;;;;;;8.29;45.03;94359.69;5003748;28;20586;-78
2022/02/11 10:49:32;;;;;;;34.08;18.27;;;;;;;8.01;44.54;94297.81;5003019;28;20075;-76
2022/02/11 10:52:11;;;;;;;29.13;16.92;;;;;;;8.53;44.53;94358.56;5007822;28;20637;-78
2022/02/11 10:54:37;;;;;;;32.08;18.45;;;;;;;8.69;44.33;94363.66;5000882;28;20115;-77
2022/02/11 10:57:12;;;;;;;31.13;17.00;;;;;;;9.09;43.48;94364.91;5005971;28;20121;-77
2022/02/11 10:59:40;;;;;;;29.95;17.83;;;;;;;9.62;42.49;94362.72;5009130;28;20041;-77
2022/02/11 11:02:07;;;;;;;34.17;19.00;;;;;;;9.61;42.45;94345.97;5001984;28;20037;-77
2022/02/11 11:04:33;;;;;;;27.90;17.27;;;;;;;9.40;42.45;94334.94;5003259;28;20041;-78
2022/02/11 11:06:59;;;;;;;32.15;16.77;;;;;;;9.31;42.13;94333.25;5004923;28;20053;-77
2022/02/11 11:09:26;;;;;;;33.78;18.48;;;;;;;9.44;42.41;94329.81;5003177;28;20607;-76
2022/02/11 11:11:59;;;;;;;30.60;18.45;;;;;;;9.95;42.19;94344.81;4998770;28;20181;-77
2022/02/11 11:14:24;;;;;;;31.90;17.33;;;;;;;10.10;42.02;94347.97;5006846;28;20032;-77
2022/02/11 11:16:52;;;;;;;36.30;19.75;;;;;;;10.28;41.05;94338.28;4999616;28;20022;-77
2022/02/11 11:19:17;;;;;;;40.05;19.90;;;;;;;10.15;40.90;94339.88;5004445;28;20042;-77
2022/02/11 11:22:10;;;;;;;38.28;19.25;;;;;;;10.38;40.92;94332.00;5004448;28;20574;-76
2022/02/11 11:24:36;;;;;;;36.50;19.25;;;;;;;10.64;40.09;94330.38;4996439;28;20104;-77
2022/02/11 11:27:02;;;;;;;35.40;20.20;;;;;;;10.90;39.97;94323.38;5001912;28;20507;-77
2022/02/11 11:29:28;;;;;;;35.13;20.00;;;;;;;11.11;40.15;94319.13;5002222;28;20295;-77
2022/02/11 11:31:56;;;;;;;32.15;19.38;;;;;;;11.17;40.25;94317.91;4994210;28;20472;-76
2022/02/11 11:34:22;;;;;;;38.03;19.40;;;;;;;10.82;40.05;94313.44;4996876;28;20041;-75
2022/02/11 11:36:50;;;;;;;32.42;19.45;;;;;;;10.41;41.21;94302.97;4998728;28;20038;-77
2022/02/11 11:39:18;;;;;;;29.05;19.23;;;;;;;10.55;40.03;94268.34;5001447;28;20527;-76
2022/02/11 11:41:58;;;;;;;42.50;22.25;;;;;;;10.88;40.02;94301.59;4995232;28;20499;-77
2022/02/11 11:44:24;;;;;;;34.92;21.13;;;;;;;10.84;40.29;94297.19;4995034;28;20029;-76
2022/02/11 11:46:58;;;;;;;37.30;22.65;;;;;;;10.79;40.19;94258.19;4995204;28;20087;-77
2022/02/11 11:49:26;;;;;;;38.65;23.73;;;;;;;10.33;40.11;94248.56;4996976;28;20026;-77
2022/02/11 11:51:54;;;;;;;37.95;22.30;;;;;;;10.18;40.51;94278.16;4998032;28;20037;-77
2022/02/11 11:54:25;;;;;;;37.60;22.63;;;;;;;9.96;40.83;94246.22;4988359;28;20059;-78
2022/02/11 11:56:53;;;;;;;37.95;23.38;;;;;;;10.15;40.52;94265.47;4993717;28;20038;-77
2022/02/11 11:59:40;;;;;;;40.78;24.23;;;;;;;10.13;40.92;94267.63;4994407;28;20076;-78
2022/02/11 12:02:11;;;;;;;43.40;23.25;;;;;;;10.07;40.95;94263.53;4995414;28;20335;-77
2022/02/11 12:04:39;;;;;;;41.33;23.77;;;;;;;10.46;40.70;94259.50;4994955;28;20461;-77
2022/02/11 12:07:07;;;;;;;34.00;21.40;;;;;;;10.80;39.83;94251.78;4995067;28;20742;-75
2022/02/11 12:09:34;;;;;;;42.13;24.80;;;;;;;11.16;38.71;94260.44;4997921;28;20037;-77
2022/02/11 12:12:02;;;;;;;42.83;25.33;;;;;;;11.40;38.14;94232.66;4990156;28;20798;-78
2022/02/11 12:14:30;;;;;;;41.13;23.92;;;;;;;11.74;37.54;94240.00;4997409;28;20036;-76
2022/02/11 12:16:57;;;;;;;46.08;22.55;;;;;;;11.60;37.28;94206.28;4996354;28;20132;-76
2022/02/11 12:19:23;;;;;;;39.28;23.90;;;;;;;11.75;36.86;94225.59;4995503;28;20053;-76
2022/02/11 12:21:49;;;;;;;37.97;22.88;;;;;;;12.06;37.11;94230.84;4994463;28;20049;-78
2022/02/11 12:29:50;;;;;;;38.78;22.95;;;;;;;11.81;36.35;94169.19;4989214;28;20044;-78
2022/02/11 12:32:18;;;;;;;36.53;23.08;;;;;;;11.77;36.68;94188.78;4997553;28;20613;-77
2022/02/11 12:35:04;;;;;;;44.30;25.10;;;;;;;12.09;36.52;94191.00;4991503;28;20483;-77
2022/02/11 12:37:31;;;;;;;39.67;24.42;;;;;;;12.58;36.27;94227.13;4992652;28;20033;-77
2022/02/11 12:40:07;;;;;;;41.47;22.95;;;;;;;12.63;37.12;94210.94;4995837;28;20973;-77
2022/02/11 12:42:35;;;;;;;45.58;26.23;;;;;;;12.70;37.16;94213.94;4996469;28;20050;-77
2022/02/11 12:45:05;;;;;;;38.05;21.50;;;;;;;12.70;36.54;94211.28;4991796;28;20209;-75
2022/02/11 12:47:34;;;;;;;39.28;23.70;;;;;;;12.77;36.55;94208.88;4989674;28;20412;-77
2022/02/11 12:50:01;;;;;;;43.53;25.38;;;;;;;12.56;35.97;94173.28;4993991;28;20025;-77
2022/02/11 12:52:29;;;;;;;41.78;23.05;;;;;;;12.74;36.43;94177.50;4994101;28;20095;-78
2022/02/11 12:55:06;;;;;;;39.75;21.77;;;;;;;12.94;35.70;94207.28;4997392;28;20745;-77
2022/02/11 12:57:33;;;;;;;40.95;24.48;;;;;;;12.95;36.20;94204.31;5000924;28;20052;-76
2022/02/11 13:00:00;;;;;;;34.28;21.85;;;;;;;13.02;35.81;94193.91;5002074;28;20064;-78
2022/02/11 13:02:27;;;;;;;41.83;22.17;;;;;;;13.00;35.48;94169.44;4999489;28;20109;-77
2022/02/11 13:05:08;;;;;;;35.70;20.92;;;;;;;13.29;35.10;94192.75;4998671;28;20065;-77
2022/02/11 13:07:39;;;;;;;40.35;23.20;;;;;;;13.23;34.80;94183.31;4994826;28;20136;-77
2022/02/11 13:10:06;;;;;;;45.53;24.70;;;;;;;12.81;35.28;94145.75;5002646;28;20040;-77
2022/02/11 13:12:37;;;;;;;38.35;21.90;;;;;;;13.09;34.92;94166.72;5000476;28;20069;-75
2022/02/11 13:15:10;;;;;;;36.17;21.58;;;;;;;12.97;34.51;94171.94;4997178;28;20411;-77
2022/02/11 13:17:36;;;;;;;40.08;22.80;;;;;;;13.14;34.76;94179.91;5007423;28;20033;-76
2022/02/11 13:20:34;;;;;;;41.10;23.92;;;;;;;12.69;35.37;94195.56;5020123;28;20038;-76
2022/02/11 13:22:59;;;;;;;40.90;21.90;;;;;;;12.75;34.90;94168.41;4998990;28;20045;-77
2022/02/11 13:25:28;;;;;;;43.08;24.02;;;;;;;12.81;34.91;94188.47;4999082;28;20050;-77
2022/02/11 13:27:56;;;;;;;32.00;21.73;;;;;;;12.61;35.18;94183.81;5004585;28;20041;-78
2022/02/11 13:30:33;;;;;;;34.70;21.25;;;;;;;12.92;36.70;94182.78;4996353;28;20124;-76
2022/02/11 13:33:21;;;;;;;37.97;21.23;;;;;;;13.30;36.07;94186.28;4999355;28;20552;-78
2022/02/11 13:35:47;;;;;;;42.05;23.40;;;;;;;13.33;34.97;94165.06;5003019;28;20053;-77
2022/02/11 13:38:19;;;;;;;40.88;23.52;;;;;;;13.36;34.49;94182.31;5006649;28;20041;-77
2022/02/11 13:40:54;;;;;;;44.60;22.83;;;;;;;13.55;35.19;94187.25;5001011;28;20968;-78
2022/02/11 13:43:20;;;;;;;40.30;22.17;;;;;;;13.74;34.94;94187.66;5003845;28;20025;-76
2022/02/11 13:45:57;;;;;;;34.30;22.15;;;;;;;13.75;34.63;94165.97;5003458;28;20066;-78
2022/02/11 13:48:25;;;;;;;38.78;21.58;;;;;;;13.87;34.20;94180.53;5002463;28;20042;-77
2022/02/11 13:51:05;;;;;;;39.42;22.40;;;;;;;13.92;34.69;94177.66;5021863;28;20408;-77
2022/02/11 13:53:35;;;;;;;35.35;21.63;;;;;;;14.03;34.84;94184.19;5005149;28;20487;-77
2022/02/11 13:56:06;;;;;;;36.78;22.25;;;;;;;14.06;34.89;94175.50;5007853;28;20101;-77
2022/02/11 13:58:33;;;;;;;40.60;19.55;;;;;;;14.01;34.99;94181.06;5004528;28;20068;-78
2022/02/11 14:01:00;;;;;;;82.63;41.58;;;;;;;13.63;35.34;94168.56;5006845;28;20079;-76
2022/02/11 14:03:28;;;;;;;95.72;48.72;;;;;;;13.56;36.41;94175.47;5007194;28;20049;-77
2022/02/11 14:05:56;;;;;;;73.78;38.45;;;;;;;13.27;36.62;94173.56;5003292;28;20125;-77
2022/02/11 14:08:23;;;;;;;71.15;34.63;;;;;;;13.15;36.98;94171.56;5011776;28;20141;-78
2022/02/11 14:11:07;;;;;;;60.83;32.50;;;;;;;13.11;36.59;94170.63;5003787;28;20029;-78
2022/02/11 14:13:33;;;;;;;43.13;23.58;;;;;;;13.09;36.69;94169.41;5003772;28;20579;-77
2022/02/11 14:15:58;;;;;;;39.28;22.40;;;;;;;13.05;36.42;94155.13;5007769;28;20026;-77
2022/02/11 14:18:23;;;;;;;34.20;17.92;;;;;;;12.94;36.20;94148.56;5005812;28;20143;-78
2022/02/11 14:20:49;;;;;;;40.25;21.10;;;;;;;12.89;36.45;94158.31;5012874;28;20041;-78
2022/02/11 14:23:16;;;;;;;47.58;23.98;;;;;;;12.78;36.44;94151.75;5001590;28;20022;-78
2022/02/11 14:25:42;;;;;;;38.40;18.63;;;;;;;12.76;36.46;94148.59;5005232;28;20037;-77
2022/02/11 14:28:12;;;;;;;35.30;17.92;;;;;;;12.83;36.17;94180.16;5003405;28;20092;-75
2022/02/11 14:30:41;;;;;;;37.00;23.20;;;;;;;12.76;36.53;94174.53;5003097;28;20165;-78
2022/02/11 14:33:08;;;;;;;30.35;18.15;;;;;;;12.34;36.65;94146.75;4999967;28;20046;-77
2022/02/11 14:35:34;;;;;;;20.98;14.20;;;;;;;12.29;36.93;94165.59;5005841;28;20025;-77
2022/02/11 14:37:59;;;;;;;25.90;14.05;;;;;;;12.31;36.68;94171.41;5000363;28;20083;-77
2022/02/11 14:40:24;;;;;;;31.98;16.77;;;;;;;12.20;37.30;94178.16;5003821;28;20042;-76
2022/02/11 14:42:50;;;;;;;32.22;17.65;;;;;;;11.67;37.20;94120.59;5005325;28;20124;-77
2022/02/11 14:45:15;;;;;;;30.13;19.85;;;;;;;12.01;37.32;94167.81;5006508;28;20049;-77
2022/02/11 14:47:40;;;;;;;45.42;24.33;;;;;;;11.82;37.67;94178.75;5007063;28;20040;-76
2022/02/11 14:50:07;;;;;;;29.80;20.58;;;;;;;11.64;37.63;94139.84;5000518;28;20120;-77
2022/02/11 14:52:33;;;;;;;28.55;17.10;;;;;;;11.72;37.62;94165.72;5008656;28;20175;-77
2022/02/11 14:54:59;;;;;;;37.63;17.88;;;;;;;11.60;37.62;94160.22;5002701;28;20033;-77
2022/02/11 14:57:24;;;;;;;30.50;15.25;;;;;;;11.43;37.76;94162.81;5008384;28;20397;-77
2022/02/11 14:59:50;;;;;;;29.42;15.93;;;;;;;11.16;38.38;94135.31;5000498;28;20705;-76
2022/02/11 15:02:16;;;;;;;31.98;17.83;;;;;;;11.36;38.15;94171.25;5005007;28;20037;-77
2022/02/11 15:04:41;;;;;;;27.80;13.68;;;;;;;11.17;38.34;94162.72;5006904;28;20647;-77
2022/02/11 15:07:07;;;;;;;26.15;15.48;;;;;;;11.00;38.47;94134.16;5006175;28;20045;-77
2022/02/11 15:09:33;;;;;;;27.02;14.98;;;;;;;10.95;38.77;94158.25;5007227;28;20457;-77